»·PEaware :: N65415 KSNA-KSBA

N65415 :: KSNA-KSBA

FLIGHT INFORMATION

Flight Status: Arrived
Operator: Privately registered:
United States
More flights under this callsign
Pilot: Stephane C. (508)
Aircraft: CESSNA 172 SKYHAWK
(C172)
More flights by this aircraft type
Origin: KSNA John Wayne-Orange Co
United States
Destination: KSBA Santa Barbara Mun
United States
More flights between these airports :: More routes between these airports
Route: +SLI V23 LAX V299 VTU VTU282R KWANG
File this flight plan on PilotEdge
Remarks:
Altitude:
(Current/Filed)
6,000ft
Speed:
(Current/Filed)
120kts
Departed: 27-Dec-17 11:40 AM
Arrived: 27-Dec-17 12:43 PM
Distance/Time
Traveled:
108nm/1:03
Distance/Time
To Go:
Arrived

Flight Plot

Page will automatically refresh every two minutes.


Map Options




Map Legend


Flown Route
Filed Route
Departure Airport
Arrival Airport
Navaid (VOR, NDB)
Fix

Horizontal Profiles

Position Reports

Time Latitude Longitude Heading Altitude Ground
Speed
27-Dec-17 11:16 33.670437 -117.867631 225 49ft 0kts
27-Dec-17 11:17 33.670437 -117.867631 225 49ft 0kts
27-Dec-17 11:18 33.670437 -117.867631 225 49ft 0kts
27-Dec-17 11:19 33.670437 -117.867631 225 49ft 0kts
27-Dec-17 11:20 33.670437 -117.867631 225 49ft 0kts
27-Dec-17 11:21 33.670437 -117.867631 225 49ft 0kts
27-Dec-17 11:22 33.670437 -117.867631 225 49ft 0kts
27-Dec-17 11:23 33.670437 -117.867631 225 49ft 0kts
27-Dec-17 11:24 33.670437 -117.867631 225 49ft 0kts
27-Dec-17 11:25 33.670437 -117.867631 225 49ft 0kts
27-Dec-17 11:26 33.670437 -117.867631 225 49ft 0kts
27-Dec-17 11:27 33.670437 -117.867631 225 49ft 0kts
27-Dec-17 11:28 33.670437 -117.867631 225 49ft 0kts
27-Dec-17 11:29 33.670437 -117.867632 224 49ft 0kts
27-Dec-17 11:30 33.670437 -117.867632 224 49ft 0kts
27-Dec-17 11:31 33.670437 -117.867632 224 49ft 0kts
27-Dec-17 11:32 33.670437 -117.867632 224 49ft 0kts
27-Dec-17 11:33 33.670437 -117.867632 224 49ft 0kts
27-Dec-17 11:34 33.670437 -117.867632 224 49ft 0kts
27-Dec-17 11:35 33.670437 -117.867632 224 49ft 0kts
27-Dec-17 11:36 33.670437 -117.867632 224 49ft 0kts
27-Dec-17 11:37 33.670415 -117.867658 222 49ft 1kts
27-Dec-17 11:38 33.671040 -117.868748 326 49ft 5kts
27-Dec-17 11:39 33.672699 -117.867746 32 49ft 7kts
27-Dec-17 11:40 33.674480 -117.866855 27 49ft 9kts
27-Dec-17 11:41 33.677417 -117.864995 27 49ft 10kts
27-Dec-17 11:42 33.679781 -117.863505 18 49ft 7kts
27-Dec-17 11:43 33.679973 -117.863646 295 49ft 0kts
27-Dec-17 11:44 33.679973 -117.863646 295 49ft 0kts
27-Dec-17 11:45 33.680551 -117.865755 207 49ft 1kts
27-Dec-17 11:46 33.669184 -117.872981 206 315ft 78kts
27-Dec-17 11:47 33.651995 -117.892050 229 1055ft 85kts
27-Dec-17 11:48 33.636435 -117.914276 229 1782ft 88kts
27-Dec-17 11:49 33.631319 -117.940120 300 2465ft 88kts
27-Dec-17 11:50 33.643790 -117.965556 297 3127ft 89kts
27-Dec-17 11:51 33.656114 -117.991487 302 3758ft 89kts
27-Dec-17 11:52 33.670546 -118.016026 306 4383ft 91kts
27-Dec-17 11:53 33.684840 -118.040827 303 5010ft 91kts
27-Dec-17 11:54 33.698327 -118.066523 305 5604ft 91kts
27-Dec-17 11:55 33.712267 -118.092955 301 6018ft 108kts
27-Dec-17 11:56 33.732242 -118.124594 309 5964ft 124kts
27-Dec-17 11:57 33.751742 -118.157335 307 5915ft 115kts
27-Dec-17 11:58 33.771320 -118.185643 310 6000ft 108kts
27-Dec-17 11:59 33.791486 -118.214442 311 5986ft 116kts
27-Dec-17 12:00 33.811864 -118.244433 310 5967ft 116kts
27-Dec-17 12:01 33.832199 -118.274475 309 5955ft 115kts
27-Dec-17 12:02 33.852201 -118.304680 309 5948ft 115kts
27-Dec-17 12:03 33.871711 -118.335428 307 5946ft 114kts
27-Dec-17 12:04 33.889313 -118.365262 306 5983ft 113kts
27-Dec-17 12:05 33.907953 -118.395846 307 6020ft 115kts
27-Dec-17 12:06 33.927159 -118.426848 307 5990ft 116kts
27-Dec-17 12:07 33.941996 -118.461255 296 5994ft 115kts
27-Dec-17 12:08 33.953554 -118.496713 288 6032ft 114kts
27-Dec-17 12:09 33.965324 -118.532193 295 6081ft 114kts
27-Dec-17 12:10 33.977408 -118.568224 292 6068ft 115kts
27-Dec-17 12:11 33.988255 -118.605320 292 6031ft 116kts
27-Dec-17 12:12 33.999739 -118.641892 293 5995ft 117kts
27-Dec-17 12:13 34.011243 -118.677374 290 5975ft 117kts
27-Dec-17 12:14 34.021485 -118.714814 286 5948ft 117kts
27-Dec-17 12:15 34.030672 -118.749924 289 5941ft 115kts
27-Dec-17 12:16 34.043078 -118.785262 288 5915ft 114kts
27-Dec-17 12:17 34.050875 -118.821899 287 5947ft 112kts
27-Dec-17 12:18 34.060651 -118.857587 290 5956ft 111kts
27-Dec-17 12:19 34.071941 -118.892232 288 5967ft 111kts
27-Dec-17 12:20 34.081511 -118.927551 290 5971ft 110kts
27-Dec-17 12:21 34.091963 -118.962397 284 5943ft 112kts
27-Dec-17 12:22 34.100256 -118.998117 287 5951ft 108kts
27-Dec-17 12:23 34.109862 -119.030094 289 6000ft 108kts
27-Dec-17 12:24 34.121513 -119.063361 299 6029ft 108kts
27-Dec-17 12:25 34.136377 -119.095472 301 6008ft 109kts
27-Dec-17 12:26 34.151075 -119.127247 299 5997ft 109kts
27-Dec-17 12:27 34.165731 -119.159488 300 5906ft 108kts
27-Dec-17 12:28 34.182229 -119.189383 299 5540ft 105kts
27-Dec-17 12:29 34.194924 -119.221394 296 5180ft 107kts
27-Dec-17 12:30 34.208328 -119.253057 296 4859ft 106kts
27-Dec-17 12:31 34.221597 -119.285281 296 4498ft 108kts
27-Dec-17 12:32 34.234721 -119.318896 296 4118ft 110kts
27-Dec-17 12:33 34.247373 -119.352545 296 4007ft 107kts
27-Dec-17 12:34 34.256340 -119.386395 281 4113ft 110kts
27-Dec-17 12:35 34.261865 -119.424793 282 4001ft 115kts
27-Dec-17 12:36 34.267852 -119.462401 281 4079ft 113kts
27-Dec-17 12:37 34.278425 -119.498849 292 3864ft 113kts
27-Dec-17 12:38 34.289043 -119.535021 289 3485ft 115kts
27-Dec-17 12:39 34.299577 -119.571984 291 3023ft 117kts
27-Dec-17 12:40 34.311762 -119.608535 311 2531ft 118kts
27-Dec-17 12:41 34.334895 -119.636125 317 2149ft 116kts
27-Dec-17 12:42 34.348084 -119.669558 286 1985ft 115kts
27-Dec-17 12:43 34.353430 -119.708202 276 1976ft 116kts
27-Dec-17 12:44 34.351063 -119.747240 259 1948ft 114kts
27-Dec-17 12:45 34.345435 -119.785547 261 1965ft 115kts
27-Dec-17 12:46 34.356085 -119.819415 338 1401ft 117kts
27-Dec-17 12:47 34.384411 -119.827259 344 878ft 97kts
27-Dec-17 12:48 34.410098 -119.835199 345 289ft 83kts
27-Dec-17 12:49 34.426215 -119.840156 358 16ft 10kts
27-Dec-17 12:50 34.426679 -119.838550 85 16ft 0kts
27-Dec-17 12:51 34.426706 -119.837509 88 16ft 15kts
27-Dec-17 12:52 34.428806 -119.835305 358 16ft 15kts
27-Dec-17 12:53 34.432636 -119.835332 72 16ft 3kts
27-Dec-17 12:54 34.432688 -119.835133 70 16ft 0kts
27-Dec-17 12:55 34.432688 -119.835133 70 16ft 0kts
27-Dec-17 12:56 34.432688 -119.835133 71 16ft 0kts

Navigation Log

Ident Type
1. KSNA Airport
2. SLI Navaid
3. POPPR Fix
4. HERMO Fix
5. LAX Navaid
6. SADDE Fix
7. VTU Navaid
8. KWANG Fix
9. KSBA Airport